createdAt,value
2022-12-31T00:02:49.984Z,34.22
2022-12-31T00:05:56.201Z,34.42
2022-12-31T00:09:05.189Z,34.92
2022-12-31T00:12:11.059Z,33.63
2022-12-31T00:15:17.224Z,33.53
2022-12-31T00:18:23.058Z,33.22
2022-12-31T00:21:30.617Z,35.80
2022-12-31T00:24:36.649Z,34.63
2022-12-31T00:27:42.118Z,35.22
2022-12-31T00:30:47.551Z,34.47
2022-12-31T00:33:53.341Z,35.78
2022-12-31T00:36:58.879Z,44.03
2022-12-31T00:40:05.167Z,34.95
2022-12-31T00:43:10.844Z,32.80
2022-12-31T00:46:17.111Z,36.10
2022-12-31T00:49:22.959Z,34.92
2022-12-31T00:52:28.743Z,35.00
2022-12-31T00:55:34.505Z,34.50
2022-12-31T00:58:41.276Z,35.25
2022-12-31T01:01:47.507Z,33.80
2022-12-31T01:04:52.792Z,35.08
2022-12-31T01:07:58.433Z,33.05
2022-12-31T01:11:22.801Z,31.85
2022-12-31T01:14:28.297Z,30.58
2022-12-31T01:17:34.946Z,33.83
2022-12-31T01:20:42.760Z,33.53
2022-12-31T01:23:48.261Z,32.78
2022-12-31T01:26:58.146Z,34.15
2022-12-31T01:30:06.376Z,33.85
2022-12-31T01:33:12.137Z,31.80
2022-12-31T01:36:25.604Z,31.63
2022-12-31T01:39:32.540Z,30.95
2022-12-31T01:42:38.093Z,32.95
2022-12-31T01:45:49.845Z,31.05
2022-12-31T01:49:01.222Z,30.92
2022-12-31T01:52:16.479Z,30.67
2022-12-31T01:55:24.251Z,28.45
2022-12-31T01:58:46.594Z,29.48
2022-12-31T02:01:55.248Z,29.17
2022-12-31T02:05:02.944Z,28.85
2022-12-31T02:08:08.961Z,28.73
2022-12-31T02:11:30.547Z,30.08
2022-12-31T02:14:40.420Z,30.05
2022-12-31T02:18:23.752Z,30.63
2022-12-31T02:21:37.800Z,29.48
2022-12-31T02:25:12.404Z,28.80
2022-12-31T02:28:38.436Z,30.30
2022-12-31T02:31:58.354Z,30.35
2022-12-31T02:35:17.139Z,29.38
2022-12-31T02:38:31.534Z,29.70
2022-12-31T02:41:52.724Z,27.63
2022-12-31T02:44:58.284Z,31.97
2022-12-31T02:48:20.621Z,32.80
2022-12-31T02:51:54.541Z,30.33
2022-12-31T02:55:26.866Z,31.85
2022-12-31T02:59:00.804Z,31.25
2022-12-31T03:02:15.012Z,32.88
2022-12-31T03:05:24.576Z,31.88
2022-12-31T03:08:30.604Z,33.70
2022-12-31T03:11:54.639Z,33.83
2022-12-31T03:15:00.633Z,32.45
2022-12-31T03:18:10.865Z,34.03
2022-12-31T03:21:34.632Z,31.27
2022-12-31T03:24:58.552Z,31.83
2022-12-31T03:28:09.890Z,31.60
2022-12-31T03:31:16.519Z,31.88
2022-12-31T03:34:22.024Z,32.78
2022-12-31T03:37:27.565Z,34.67
2022-12-31T03:40:37.587Z,34.00
2022-12-31T03:43:42.880Z,32.42
2022-12-31T03:46:48.662Z,32.65
2022-12-31T03:49:54.402Z,33.97
2022-12-31T03:52:59.965Z,32.53
2022-12-31T03:56:05.995Z,33.78
2022-12-31T03:59:11.784Z,33.78
2022-12-31T04:02:19.196Z,35.67
2022-12-31T04:05:26.517Z,32.40
2022-12-31T04:08:32.158Z,32.83
2022-12-31T04:11:37.403Z,30.25
2022-12-31T04:14:42.420Z,34.65
2022-12-31T04:17:49.228Z,34.97
2022-12-31T04:20:54.744Z,31.95
2022-12-31T04:24:00.396Z,33.22
2022-12-31T04:27:08.061Z,30.50
2022-12-31T04:30:14.785Z,31.65
2022-12-31T04:33:20.646Z,34.50
2022-12-31T04:36:26.124Z,32.50
2022-12-31T04:39:32.324Z,33.25
2022-12-31T04:42:38.201Z,32.05
2022-12-31T04:45:44.103Z,33.90
2022-12-31T04:48:49.387Z,32.22
2022-12-31T04:51:54.531Z,31.42
2022-12-31T04:54:59.902Z,32.03
2022-12-31T04:58:05.225Z,35.13
2022-12-31T05:01:11.251Z,38.65
2022-12-31T05:04:16.936Z,39.47
2022-12-31T05:07:22.746Z,40.08
2022-12-31T05:10:28.455Z,38.10
2022-12-31T05:13:33.918Z,39.65
2022-12-31T05:16:39.432Z,38.47
2022-12-31T05:19:45.086Z,36.00
2022-12-31T05:22:50.941Z,40.13
2022-12-31T05:25:57.068Z,39.10
2022-12-31T05:29:02.624Z,39.67
2022-12-31T05:32:08.022Z,40.95
2022-12-31T05:35:13.503Z,43.50
2022-12-31T05:38:19.040Z,41.83
2022-12-31T05:41:24.475Z,40.85
2022-12-31T05:44:30.519Z,39.75
2022-12-31T05:47:35.362Z,39.63
2022-12-31T05:50:41.016Z,32.42
2022-12-31T05:53:47.599Z,31.13
2022-12-31T05:56:53.076Z,28.00
2022-12-31T05:59:58.754Z,30.83
2022-12-31T06:03:04.660Z,28.90
2022-12-31T06:06:09.893Z,30.00
2022-12-31T06:09:17.340Z,28.15
2022-12-31T06:12:22.530Z,27.65
2022-12-31T06:15:28.131Z,24.55
2022-12-31T06:18:33.861Z,25.42
2022-12-31T06:21:40.051Z,26.27
2022-12-31T06:24:46.007Z,26.67
2022-12-31T06:27:51.938Z,25.48
2022-12-31T06:31:05.351Z,24.65
2022-12-31T06:34:12.858Z,26.92
2022-12-31T06:37:18.593Z,27.25
2022-12-31T06:40:24.229Z,28.23
2022-12-31T06:43:29.855Z,27.23
2022-12-31T06:46:34.988Z,29.13
2022-12-31T06:49:41.215Z,25.83
2022-12-31T06:52:46.120Z,28.55
2022-12-31T06:55:51.304Z,26.60
2022-12-31T06:58:57.545Z,26.88
2022-12-31T07:02:29.967Z,26.52
2022-12-31T07:05:39.956Z,28.55
2022-12-31T07:09:01.621Z,27.77
2022-12-31T07:12:45.371Z,30.10
2022-12-31T07:16:10.367Z,27.70
2022-12-31T07:19:36.315Z,29.80
2022-12-31T07:22:45.170Z,30.27
2022-12-31T07:26:22.601Z,30.67
2022-12-31T07:30:01.187Z,29.90
2022-12-31T07:33:34.000Z,30.90
2022-12-31T07:37:17.883Z,33.15
2022-12-31T07:41:05.479Z,31.35
2022-12-31T07:44:35.713Z,32.53
2022-12-31T07:47:41.493Z,35.85
2022-12-31T07:50:47.024Z,36.83
2022-12-31T07:53:52.871Z,35.78
2022-12-31T07:56:58.418Z,39.72
2022-12-31T08:00:15.572Z,40.65
2022-12-31T08:03:25.750Z,39.88
2022-12-31T08:06:42.869Z,41.40
2022-12-31T08:10:04.234Z,39.40
2022-12-31T08:13:11.813Z,41.27
2022-12-31T08:16:17.613Z,41.30
2022-12-31T08:19:32.684Z,40.90
2022-12-31T08:22:47.220Z,42.95
2022-12-31T08:26:28.451Z,42.05
2022-12-31T08:30:09.843Z,44.75
2022-12-31T08:33:39.991Z,45.05
2022-12-31T08:37:06.485Z,39.67
2022-12-31T08:40:24.546Z,41.10
2022-12-31T08:44:10.923Z,38.97
2022-12-31T08:47:55.048Z,38.33
2022-12-31T08:51:03.791Z,41.47
2022-12-31T08:54:12.630Z,40.83
2022-12-31T08:57:59.532Z,41.92
2022-12-31T09:01:07.577Z,41.25
2022-12-31T09:04:36.280Z,40.78
2022-12-31T09:08:11.815Z,42.90
2022-12-31T09:11:28.380Z,39.67
2022-12-31T09:14:58.305Z,39.78
2022-12-31T09:18:04.256Z,39.25
2022-12-31T09:21:11.557Z,39.60
2022-12-31T09:24:17.077Z,40.30
2022-12-31T09:27:57.777Z,40.92
2022-12-31T09:31:15.933Z,40.53
2022-12-31T09:35:12.503Z,39.80
2022-12-31T09:38:54.974Z,41.92
2022-12-31T09:42:31.079Z,38.05
2022-12-31T09:46:17.606Z,39.55
2022-12-31T09:49:31.910Z,39.78
2022-12-31T09:52:56.252Z,41.20
2022-12-31T09:56:29.397Z,36.33
2022-12-31T09:59:38.008Z,36.72
2022-12-31T10:02:52.154Z,36.50
2022-12-31T10:05:57.718Z,35.72
2022-12-31T10:09:35.459Z,36.00
2022-12-31T10:13:09.126Z,37.47
2022-12-31T10:16:40.678Z,37.60
2022-12-31T10:19:53.797Z,37.38
2022-12-31T10:22:59.235Z,32.47
2022-12-31T10:26:27.183Z,37.97
2022-12-31T10:30:34.515Z,34.83
2022-12-31T10:34:00.172Z,35.70
2022-12-31T10:37:17.883Z,36.55
2022-12-31T10:40:25.758Z,35.88
2022-12-31T10:43:52.539Z,37.15
2022-12-31T10:47:29.066Z,37.38
2022-12-31T10:51:00.943Z,38.58
2022-12-31T10:54:24.721Z,37.53
2022-12-31T10:58:04.041Z,36.22
2022-12-31T11:01:15.875Z,36.25
2022-12-31T11:04:47.712Z,39.47
2022-12-31T11:07:59.128Z,37.40
2022-12-31T11:11:22.865Z,39.38
2022-12-31T11:14:52.726Z,38.08
2022-12-31T11:18:22.873Z,32.95
2022-12-31T11:21:41.408Z,34.30
2022-12-31T11:25:13.114Z,33.15
2022-12-31T11:28:33.493Z,29.05
2022-12-31T11:31:50.780Z,32.25
2022-12-31T11:35:33.452Z,31.02
2022-12-31T11:38:58.924Z,32.72
2022-12-31T11:42:27.283Z,31.00
2022-12-31T11:46:04.379Z,36.38
2022-12-31T11:49:27.753Z,32.20
2022-12-31T11:52:52.152Z,30.83
2022-12-31T11:56:17.403Z,31.70
2022-12-31T11:59:22.823Z,29.75
2022-12-31T12:02:43.680Z,30.15
2022-12-31T12:05:49.313Z,29.45
2022-12-31T12:09:07.359Z,31.27
2022-12-31T12:12:13.829Z,29.38
2022-12-31T12:15:27.736Z,29.15
2022-12-31T12:19:07.050Z,28.90
2022-12-31T12:22:20.234Z,29.52
2022-12-31T12:25:28.243Z,28.25
2022-12-31T12:28:46.513Z,28.27
2022-12-31T12:32:07.862Z,29.90
2022-12-31T12:35:15.381Z,30.05
2022-12-31T12:38:23.440Z,29.70
2022-12-31T12:41:29.109Z,30.17
2022-12-31T12:44:35.980Z,29.98
2022-12-31T12:47:46.682Z,33.53
2022-12-31T12:50:52.405Z,30.30
2022-12-31T12:54:13.188Z,31.63
2022-12-31T12:57:34.487Z,30.70
2022-12-31T13:01:01.673Z,33.03
2022-12-31T13:04:35.214Z,29.13
2022-12-31T13:07:50.090Z,32.88
2022-12-31T13:11:01.833Z,33.45
2022-12-31T13:14:28.311Z,33.67
2022-12-31T13:18:01.252Z,32.90
2022-12-31T13:21:42.021Z,31.20
2022-12-31T13:25:29.021Z,31.20
2022-12-31T13:28:35.983Z,32.47
2022-12-31T13:31:43.489Z,29.80
2022-12-31T13:34:55.840Z,32.45
2022-12-31T13:38:12.267Z,32.38
2022-12-31T13:41:19.613Z,31.42
2022-12-31T13:44:45.192Z,33.10
2022-12-31T13:47:56.952Z,32.35
2022-12-31T13:51:19.151Z,33.03
2022-12-31T13:54:41.701Z,31.73
2022-12-31T13:57:53.101Z,35.13
2022-12-31T14:01:33.656Z,34.25
2022-12-31T14:05:03.504Z,30.58
2022-12-31T14:08:10.191Z,34.13
2022-12-31T14:11:55.165Z,34.60
2022-12-31T14:15:11.801Z,34.55
2022-12-31T14:18:41.437Z,33.13
2022-12-31T14:22:07.127Z,35.35
2022-12-31T14:25:25.569Z,32.58
2022-12-31T14:28:38.340Z,33.63
2022-12-31T14:31:49.105Z,35.88
2022-12-31T14:35:19.113Z,32.20
2022-12-31T14:38:46.229Z,33.92
2022-12-31T14:42:17.503Z,33.17
2022-12-31T14:45:50.241Z,33.50
2022-12-31T14:49:02.984Z,34.08
2022-12-31T14:52:15.975Z,31.73
2022-12-31T14:55:25.584Z,33.40
2022-12-31T14:58:39.765Z,33.08
2022-12-31T15:01:45.784Z,33.00
2022-12-31T15:04:51.193Z,32.33
2022-12-31T15:08:10.456Z,31.30
2022-12-31T15:11:25.254Z,34.42
2022-12-31T15:14:55.853Z,30.83
2022-12-31T15:18:42.819Z,34.25
2022-12-31T15:21:55.153Z,33.15
2022-12-31T15:25:01.259Z,34.22
2022-12-31T15:28:26.635Z,34.65
2022-12-31T15:31:36.999Z,40.88
2022-12-31T15:34:42.566Z,35.55
2022-12-31T15:38:11.205Z,37.60
2022-12-31T15:41:19.120Z,36.38
2022-12-31T15:44:33.393Z,40.05
2022-12-31T15:47:46.519Z,37.90
2022-12-31T15:50:54.933Z,38.92
2022-12-31T15:54:02.810Z,37.30
2022-12-31T15:57:17.007Z,35.42
2022-12-31T16:00:24.046Z,36.10
2022-12-31T16:03:31.404Z,42.10
2022-12-31T16:06:38.883Z,37.15
2022-12-31T16:09:50.074Z,36.13
2022-12-31T16:12:58.166Z,38.78
2022-12-31T16:16:19.642Z,34.28
2022-12-31T16:19:36.515Z,36.22
2022-12-31T16:22:41.681Z,44.80
2022-12-31T16:25:47.255Z,48.13
2022-12-31T16:28:52.642Z,452.60
2022-12-31T16:31:58.260Z,236.60
2022-12-31T16:35:08.393Z,332.63
2022-12-31T16:38:19.223Z,335.30
2022-12-31T16:41:24.623Z,138.85
2022-12-31T16:44:30.982Z,250.73
2022-12-31T16:47:40.336Z,125.32
2022-12-31T16:50:53.914Z,81.45
2022-12-31T16:54:01.768Z,55.85
2022-12-31T16:57:11.184Z,164.80
2022-12-31T17:00:19.246Z,136.65
2022-12-31T17:03:28.051Z,141.45
2022-12-31T17:06:33.650Z,107.00
2022-12-31T17:09:39.929Z,69.95
2022-12-31T17:16:21.990Z,53.17
2022-12-31T17:19:58.368Z,54.10
2022-12-31T17:23:09.409Z,50.33
2022-12-31T17:26:32.670Z,46.95
2022-12-31T17:29:38.142Z,43.00
2022-12-31T17:32:45.680Z,38.60
2022-12-31T17:36:15.715Z,41.58
2022-12-31T17:39:23.837Z,40.35
2022-12-31T17:42:34.794Z,38.60
2022-12-31T17:45:43.228Z,37.92
2022-12-31T17:48:53.261Z,40.40
2022-12-31T17:51:58.874Z,42.63
2022-12-31T17:55:04.169Z,47.55
2022-12-31T17:58:18.931Z,48.13
2022-12-31T18:01:24.411Z,47.35
2022-12-31T18:04:29.991Z,47.20
2022-12-31T18:07:34.965Z,42.67
2022-12-31T18:10:43.339Z,43.92
2022-12-31T18:13:49.174Z,46.13
2022-12-31T18:16:54.325Z,45.72
2022-12-31T18:20:07.088Z,44.47
2022-12-31T18:23:20.395Z,45.15
2022-12-31T18:26:27.501Z,46.58
2022-12-31T18:29:32.845Z,44.22
2022-12-31T18:32:40.187Z,44.72
2022-12-31T18:39:11.064Z,38.10
2022-12-31T18:42:18.903Z,37.53
2022-12-31T18:45:25.106Z,41.10
2022-12-31T18:48:30.355Z,39.30
2022-12-31T18:51:36.306Z,38.42
2022-12-31T18:54:49.841Z,40.05
2022-12-31T18:57:55.691Z,43.28
2022-12-31T19:01:00.942Z,42.08
2022-12-31T19:04:19.930Z,42.60
2022-12-31T19:07:28.127Z,41.67
2022-12-31T19:10:34.587Z,46.88
2022-12-31T19:13:40.086Z,43.38
2022-12-31T19:16:45.939Z,106.35
2022-12-31T19:19:51.127Z,86.10
2022-12-31T19:22:57.515Z,50.95
2022-12-31T19:26:02.765Z,60.67
2022-12-31T19:29:22.666Z,46.92
2022-12-31T19:32:27.826Z,45.08
2022-12-31T19:35:33.127Z,43.30
2022-12-31T19:38:38.405Z,43.30
2022-12-31T19:41:44.245Z,43.58
2022-12-31T19:44:49.598Z,47.47
2022-12-31T19:47:56.308Z,73.47
2022-12-31T19:51:01.590Z,57.28
2022-12-31T19:54:07.066Z,46.47
2022-12-31T19:57:12.447Z,56.10
2022-12-31T20:00:19.088Z,79.97
2022-12-31T20:03:25.022Z,84.63
2022-12-31T20:06:30.530Z,77.45
2022-12-31T20:09:36.413Z,44.75
2022-12-31T20:12:44.624Z,45.30
2022-12-31T20:15:50.187Z,47.10
2022-12-31T20:18:55.872Z,42.20
2022-12-31T20:22:01.760Z,48.95
2022-12-31T20:25:07.172Z,46.03
2022-12-31T20:28:12.747Z,44.97
2022-12-31T20:31:21.752Z,46.42
2022-12-31T20:34:27.601Z,46.47
2022-12-31T20:37:32.484Z,48.78
2022-12-31T20:40:44.599Z,47.30
2022-12-31T20:43:52.419Z,47.88
2022-12-31T20:46:57.892Z,49.85
2022-12-31T20:50:12.265Z,47.15
2022-12-31T20:53:18.809Z,48.85
2022-12-31T20:56:26.705Z,49.83
2022-12-31T20:59:31.935Z,47.10
2022-12-31T21:02:42.772Z,44.97
2022-12-31T21:05:54.470Z,46.00
2022-12-31T21:09:02.018Z,49.63
2022-12-31T21:12:25.775Z,48.00
2022-12-31T21:15:31.023Z,47.17
2022-12-31T21:18:36.435Z,45.70
2022-12-31T21:21:42.712Z,44.53
2022-12-31T21:24:48.412Z,45.05
2022-12-31T21:27:53.983Z,44.97
2022-12-31T21:31:01.742Z,46.47
2022-12-31T21:34:06.695Z,46.33
2022-12-31T21:37:11.965Z,45.60
2022-12-31T21:40:18.120Z,53.75
2022-12-31T21:43:23.948Z,50.25
2022-12-31T21:46:30.045Z,46.00
2022-12-31T21:49:35.647Z,50.63
2022-12-31T21:52:41.604Z,51.90
2022-12-31T21:56:05.308Z,48.35
2022-12-31T21:59:29.218Z,46.25
2022-12-31T22:03:00.012Z,49.25
2022-12-31T22:06:12.350Z,42.17
2022-12-31T22:09:17.664Z,44.03
2022-12-31T22:12:22.938Z,43.72
2022-12-31T22:15:28.202Z,42.28
2022-12-31T22:18:38.942Z,43.58
2022-12-31T22:21:44.492Z,38.67
2022-12-31T22:24:49.978Z,35.40
2022-12-31T22:28:36.029Z,37.97
2022-12-31T22:31:26.784Z,37.70
2022-12-31T22:34:32.588Z,36.58
2022-12-31T22:41:03.367Z,37.40
2022-12-31T22:44:08.903Z,36.60
2022-12-31T22:47:14.083Z,38.60
2022-12-31T22:50:19.517Z,38.90
2022-12-31T22:53:25.211Z,36.80
2022-12-31T22:56:30.528Z,37.15
2022-12-31T22:59:36.208Z,38.25
2022-12-31T23:02:42.415Z,42.42
2022-12-31T23:05:52.739Z,37.85
2022-12-31T23:09:16.144Z,42.33
2022-12-31T23:12:22.279Z,37.63
2022-12-31T23:15:46.177Z,43.03
2022-12-31T23:19:10.072Z,43.20
2022-12-31T23:22:33.966Z,39.60
2022-12-31T23:25:45.249Z,40.20
2022-12-31T23:28:50.866Z,44.55
2022-12-31T23:31:56.340Z,50.60
2022-12-31T23:35:07.774Z,57.83
2022-12-31T23:38:17.732Z,62.95
2022-12-31T23:41:23.499Z,71.57
2022-12-31T23:44:29.219Z,79.50
2022-12-31T23:47:35.967Z,73.72
2022-12-31T23:50:41.521Z,74.03
2022-12-31T23:53:47.365Z,71.88
2022-12-31T23:56:53.156Z,62.50
2022-12-31T23:59:59.006Z,44.40
